sensor_id;sensor_type;location;lat;lon;timestamp;temperature;humidity
8591;DHT22;4333;48.322;14.340;2023-08-08T00:00:23;11.20;99.90
8591;DHT22;4333;48.322;14.340;2023-08-08T00:02:50;11.20;99.90
8591;DHT22;4333;48.322;14.340;2023-08-08T00:05:20;11.10;99.90
8591;DHT22;4333;48.322;14.340;2023-08-08T00:07:46;11.10;99.90
8591;DHT22;4333;48.322;14.340;2023-08-08T00:10:12;11.10;99.90
8591;DHT22;4333;48.322;14.340;2023-08-08T00:12:39;11.10;99.90
8591;DHT22;4333;48.322;14.340;2023-08-08T00:15:07;11.00;99.90
8591;DHT22;4333;48.322;14.340;2023-08-08T00:17:34;10.90;99.90
8591;DHT22;4333;48.322;14.340;2023-08-08T00:20:00;10.80;99.90
8591;DHT22;4333;48.322;14.340;2023-08-08T00:22:26;10.80;99.90
8591;DHT22;4333;48.322;14.340;2023-08-08T00:24:51;10.80;99.90
8591;DHT22;4333;48.322;14.340;2023-08-08T00:27:17;10.90;99.90
8591;DHT22;4333;48.322;14.340;2023-08-08T00:29:43;10.90;99.90
8591;DHT22;4333;48.322;14.340;2023-08-08T00:32:11;10.90;99.90
8591;DHT22;4333;48.322;14.340;2023-08-08T00:34:43;11.00;99.90
8591;DHT22;4333;48.322;14.340;2023-08-08T00:37:09;10.90;99.90
8591;DHT22;4333;48.322;14.340;2023-08-08T00:39:38;10.90;99.90
8591;DHT22;4333;48.322;14.340;2023-08-08T00:42:04;10.80;99.90
8591;DHT22;4333;48.322;14.340;2023-08-08T00:44:36;10.80;99.90
8591;DHT22;4333;48.322;14.340;2023-08-08T00:47:06;10.70;99.90
8591;DHT22;4333;48.322;14.340;2023-08-08T00:49:32;10.60;99.90
8591;DHT22;4333;48.322;14.340;2023-08-08T00:51:57;10.60;99.90
8591;DHT22;4333;48.322;14.340;2023-08-08T00:54:23;10.50;99.90
8591;DHT22;4333;48.322;14.340;2023-08-08T00:56:51;10.40;99.90
8591;DHT22;4333;48.322;14.340;2023-08-08T00:59:18;10.40;99.90
8591;DHT22;4333;48.322;14.340;2023-08-08T01:01:44;10.50;99.90
8591;DHT22;4333;48.322;14.340;2023-08-08T01:04:13;10.40;99.90
8591;DHT22;4333;48.322;14.340;2023-08-08T01:07:06;10.40;99.90
8591;DHT22;4333;48.322;14.340;2023-08-08T01:12:01;10.60;99.90
8591;DHT22;4333;48.322;14.340;2023-08-08T01:14:29;10.60;99.90
8591;DHT22;4333;48.322;14.340;2023-08-08T01:16:55;10.60;99.90
8591;DHT22;4333;48.322;14.340;2023-08-08T01:19:30;10.60;99.90
8591;DHT22;4333;48.322;14.340;2023-08-08T01:22:02;10.70;99.90
8591;DHT22;4333;48.322;14.340;2023-08-08T01:24:30;10.70;99.90
8591;DHT22;4333;48.322;14.340;2023-08-08T01:27:02;10.50;99.90
8591;DHT22;4333;48.322;14.340;2023-08-08T01:29:31;10.50;99.90
8591;DHT22;4333;48.322;14.340;2023-08-08T01:31:56;10.50;99.90
8591;DHT22;4333;48.322;14.340;2023-08-08T01:34:22;10.40;99.90
8591;DHT22;4333;48.322;14.340;2023-08-08T01:36:57;10.40;99.90
8591;DHT22;4333;48.322;14.340;2023-08-08T01:39:28;10.30;99.90
8591;DHT22;4333;48.322;14.340;2023-08-08T01:41:55;10.30;99.90
8591;DHT22;4333;48.322;14.340;2023-08-08T01:44:22;10.20;99.90
8591;DHT22;4333;48.322;14.340;2023-08-08T01:46:53;10.10;99.90
8591;DHT22;4333;48.322;14.340;2023-08-08T01:49:21;9.90;99.90
8591;DHT22;4333;48.322;14.340;2023-08-08T01:51:47;10.00;99.90
8591;DHT22;4333;48.322;14.340;2023-08-08T01:54:13;10.00;99.90
8591;DHT22;4333;48.322;14.340;2023-08-08T01:56:41;10.10;99.90
8591;DHT22;4333;48.322;14.340;2023-08-08T01:59:07;10.20;99.90
8591;DHT22;4333;48.322;14.340;2023-08-08T02:01:37;10.20;99.90
8591;DHT22;4333;48.322;14.340;2023-08-08T02:04:05;10.20;99.90
8591;DHT22;4333;48.322;14.340;2023-08-08T02:06:34;10.10;99.90
8591;DHT22;4333;48.322;14.340;2023-08-08T02:08:59;10.00;99.90
8591;DHT22;4333;48.322;14.340;2023-08-08T02:11:25;9.90;99.90
8591;DHT22;4333;48.322;14.340;2023-08-08T02:13:51;9.90;99.90
8591;DHT22;4333;48.322;14.340;2023-08-08T02:16:16;9.90;99.90
8591;DHT22;4333;48.322;14.340;2023-08-08T02:18:45;9.90;99.90
8591;DHT22;4333;48.322;14.340;2023-08-08T02:21:13;10.10;99.90
8591;DHT22;4333;48.322;14.340;2023-08-08T02:23:40;10.10;99.90
8591;DHT22;4333;48.322;14.340;2023-08-08T02:26:11;10.10;99.90
8591;DHT22;4333;48.322;14.340;2023-08-08T02:28:37;10.10;99.90
8591;DHT22;4333;48.322;14.340;2023-08-08T02:31:05;10.20;99.90
8591;DHT22;4333;48.322;14.340;2023-08-08T02:33:33;10.20;99.90
8591;DHT22;4333;48.322;14.340;2023-08-08T02:35:58;10.10;99.90
8591;DHT22;4333;48.322;14.340;2023-08-08T02:38:24;10.10;99.90
8591;DHT22;4333;48.322;14.340;2023-08-08T02:40:50;10.10;99.90
8591;DHT22;4333;48.322;14.340;2023-08-08T02:43:15;10.10;99.90
8591;DHT22;4333;48.322;14.340;2023-08-08T02:45:46;10.10;99.90
8591;DHT22;4333;48.322;14.340;2023-08-08T02:48:14;10.10;99.90
8591;DHT22;4333;48.322;14.340;2023-08-08T02:50:39;10.00;99.90
8591;DHT22;4333;48.322;14.340;2023-08-08T02:53:05;10.00;99.90
8591;DHT22;4333;48.322;14.340;2023-08-08T02:55:31;10.00;99.90
8591;DHT22;4333;48.322;14.340;2023-08-08T02:57:56;10.00;99.90
8591;DHT22;4333;48.322;14.340;2023-08-08T03:00:27;10.10;99.90
8591;DHT22;4333;48.322;14.340;2023-08-08T03:02:52;10.10;99.90
8591;DHT22;4333;48.322;14.340;2023-08-08T03:05:18;10.10;99.90
8591;DHT22;4333;48.322;14.340;2023-08-08T03:07:48;10.20;99.90
8591;DHT22;4333;48.322;14.340;2023-08-08T03:10:14;10.20;99.90
8591;DHT22;4333;48.322;14.340;2023-08-08T03:12:40;10.30;99.90
8591;DHT22;4333;48.322;14.340;2023-08-08T03:15:07;10.20;99.90
8591;DHT22;4333;48.322;14.340;2023-08-08T03:17:38;10.10;99.90
8591;DHT22;4333;48.322;14.340;2023-08-08T03:20:04;10.00;99.90
8591;DHT22;4333;48.322;14.340;2023-08-08T03:22:34;10.00;99.90
8591;DHT22;4333;48.322;14.340;2023-08-08T03:25:04;10.00;99.90
8591;DHT22;4333;48.322;14.340;2023-08-08T03:27:30;10.00;99.90
8591;DHT22;4333;48.322;14.340;2023-08-08T03:29:58;10.10;99.90
8591;DHT22;4333;48.322;14.340;2023-08-08T03:32:24;10.10;99.90
8591;DHT22;4333;48.322;14.340;2023-08-08T03:34:54;10.20;99.90
8591;DHT22;4333;48.322;14.340;2023-08-08T03:37:20;10.10;99.90
8591;DHT22;4333;48.322;14.340;2023-08-08T03:39:46;10.00;99.90
8591;DHT22;4333;48.322;14.340;2023-08-08T03:42:11;9.90;99.90
8591;DHT22;4333;48.322;14.340;2023-08-08T03:44:39;9.90;99.90
8591;DHT22;4333;48.322;14.340;2023-08-08T03:47:05;9.80;99.90
8591;DHT22;4333;48.322;14.340;2023-08-08T03:49:33;9.80;99.90
8591;DHT22;4333;48.322;14.340;2023-08-08T03:51:59;9.70;99.90
8591;DHT22;4333;48.322;14.340;2023-08-08T03:54:24;9.70;99.90
8591;DHT22;4333;48.322;14.340;2023-08-08T03:56:50;9.70;99.90
8591;DHT22;4333;48.322;14.340;2023-08-08T03:59:18;9.70;99.90
8591;DHT22;4333;48.322;14.340;2023-08-08T04:01:46;9.70;99.90
8591;DHT22;4333;48.322;14.340;2023-08-08T04:04:11;9.70;99.90
8591;DHT22;4333;48.322;14.340;2023-08-08T04:06:39;9.50;99.90
8591;DHT22;4333;48.322;14.340;2023-08-08T04:09:07;9.50;99.90
8591;DHT22;4333;48.322;14.340;2023-08-08T04:11:35;9.50;99.90
8591;DHT22;4333;48.322;14.340;2023-08-08T04:14:02;9.50;99.90
8591;DHT22;4333;48.322;14.340;2023-08-08T04:16:28;9.50;99.90
8591;DHT22;4333;48.322;14.340;2023-08-08T04:18:54;9.60;99.90
8591;DHT22;4333;48.322;14.340;2023-08-08T04:21:19;9.60;99.90
8591;DHT22;4333;48.322;14.340;2023-08-08T04:23:45;9.70;99.90
8591;DHT22;4333;48.322;14.340;2023-08-08T04:26:11;9.70;99.90
8591;DHT22;4333;48.322;14.340;2023-08-08T04:28:37;9.80;99.90
8591;DHT22;4333;48.322;14.340;2023-08-08T04:31:02;9.80;99.90
8591;DHT22;4333;48.322;14.340;2023-08-08T04:33:31;9.80;99.90
8591;DHT22;4333;48.322;14.340;2023-08-08T04:35:56;9.80;99.90
8591;DHT22;4333;48.322;14.340;2023-08-08T04:38:22;9.90;99.90
8591;DHT22;4333;48.322;14.340;2023-08-08T04:40:50;10.10;99.90
8591;DHT22;4333;48.322;14.340;2023-08-08T04:43:15;10.00;99.90
8591;DHT22;4333;48.322;14.340;2023-08-08T04:45:43;10.10;99.90
8591;DHT22;4333;48.322;14.340;2023-08-08T04:48:14;10.20;99.90
8591;DHT22;4333;48.322;14.340;2023-08-08T04:50:44;10.20;99.90
8591;DHT22;4333;48.322;14.340;2023-08-08T04:53:13;10.30;99.90
8591;DHT22;4333;48.322;14.340;2023-08-08T04:55:41;10.30;99.90
8591;DHT22;4333;48.322;14.340;2023-08-08T04:58:12;10.40;99.90
8591;DHT22;4333;48.322;14.340;2023-08-08T05:00:38;10.50;99.90
8591;DHT22;4333;48.322;14.340;2023-08-08T05:03:03;10.60;99.90
8591;DHT22;4333;48.322;14.340;2023-08-08T05:05:29;10.60;99.90
8591;DHT22;4333;48.322;14.340;2023-08-08T05:07:55;10.60;99.90
8591;DHT22;4333;48.322;14.340;2023-08-08T05:10:20;10.60;99.90
8591;DHT22;4333;48.322;14.340;2023-08-08T05:12:46;10.60;99.90
8591;DHT22;4333;48.322;14.340;2023-08-08T05:15:14;10.60;99.90
8591;DHT22;4333;48.322;14.340;2023-08-08T05:17:40;10.70;99.90
8591;DHT22;4333;48.322;14.340;2023-08-08T05:20:06;10.90;99.90
8591;DHT22;4333;48.322;14.340;2023-08-08T05:22:32;10.90;99.90
8591;DHT22;4333;48.322;14.340;2023-08-08T05:25:00;11.00;99.90
8591;DHT22;4333;48.322;14.340;2023-08-08T05:27:25;11.10;99.90
8591;DHT22;4333;48.322;14.340;2023-08-08T05:29:53;11.20;99.90
8591;DHT22;4333;48.322;14.340;2023-08-08T05:32:19;11.30;99.90
8591;DHT22;4333;48.322;14.340;2023-08-08T05:34:45;11.40;99.90
8591;DHT22;4333;48.322;14.340;2023-08-08T05:37:10;11.40;99.90
8591;DHT22;4333;48.322;14.340;2023-08-08T05:39:38;11.30;99.90
8591;DHT22;4333;48.322;14.340;2023-08-08T05:42:04;11.40;99.90
8591;DHT22;4333;48.322;14.340;2023-08-08T05:44:30;11.50;99.90
8591;DHT22;4333;48.322;14.340;2023-08-08T05:46:56;11.60;99.90
8591;DHT22;4333;48.322;14.340;2023-08-08T05:49:21;11.70;99.90
8591;DHT22;4333;48.322;14.340;2023-08-08T05:51:47;11.80;99.90
8591;DHT22;4333;48.322;14.340;2023-08-08T05:54:13;12.10;99.90
8591;DHT22;4333;48.322;14.340;2023-08-08T05:56:38;12.40;99.90
8591;DHT22;4333;48.322;14.340;2023-08-08T05:59:04;12.40;99.90
8591;DHT22;4333;48.322;14.340;2023-08-08T06:01:32;12.40;99.90
8591;DHT22;4333;48.322;14.340;2023-08-08T06:03:59;12.30;99.90
8591;DHT22;4333;48.322;14.340;2023-08-08T06:06:28;12.20;99.90
8591;DHT22;4333;48.322;14.340;2023-08-08T06:08:53;12.30;99.90
8591;DHT22;4333;48.322;14.340;2023-08-08T06:11:19;12.40;99.90
8591;DHT22;4333;48.322;14.340;2023-08-08T06:13:47;12.40;99.90
8591;DHT22;4333;48.322;14.340;2023-08-08T06:16:15;12.70;99.90
8591;DHT22;4333;48.322;14.340;2023-08-08T06:18:41;13.00;99.90
8591;DHT22;4333;48.322;14.340;2023-08-08T06:21:09;13.20;99.90
8591;DHT22;4333;48.322;14.340;2023-08-08T06:23:35;13.60;99.90
8591;DHT22;4333;48.322;14.340;2023-08-08T06:26:01;14.10;99.90
8591;DHT22;4333;48.322;14.340;2023-08-08T06:28:26;14.60;99.90
8591;DHT22;4333;48.322;14.340;2023-08-08T06:30:52;14.60;99.90
8591;DHT22;4333;48.322;14.340;2023-08-08T06:33:20;15.10;99.90
8591;DHT22;4333;48.322;14.340;2023-08-08T06:35:46;15.90;99.90
8591;DHT22;4333;48.322;14.340;2023-08-08T06:38:14;16.60;99.90
8591;DHT22;4333;48.322;14.340;2023-08-08T06:40:42;17.20;99.90
8591;DHT22;4333;48.322;14.340;2023-08-08T06:43:07;17.50;99.90
8591;DHT22;4333;48.322;14.340;2023-08-08T06:45:33;18.10;99.90
8591;DHT22;4333;48.322;14.340;2023-08-08T06:48:00;18.90;99.90
8591;DHT22;4333;48.322;14.340;2023-08-08T06:50:28;18.50;99.90
8591;DHT22;4333;48.322;14.340;2023-08-08T06:52:54;18.30;99.90
8591;DHT22;4333;48.322;14.340;2023-08-08T06:55:19;17.50;99.90
8591;DHT22;4333;48.322;14.340;2023-08-08T06:57:46;17.50;99.90
8591;DHT22;4333;48.322;14.340;2023-08-08T07:00:12;18.00;99.90
8591;DHT22;4333;48.322;14.340;2023-08-08T07:02:39;18.20;99.90
8591;DHT22;4333;48.322;14.340;2023-08-08T07:05:05;18.50;96.40
8591;DHT22;4333;48.322;14.340;2023-08-08T07:07:34;18.20;94.10
8591;DHT22;4333;48.322;14.340;2023-08-08T07:10:01;18.60;98.70
8591;DHT22;4333;48.322;14.340;2023-08-08T07:12:32;19.00;93.10
8591;DHT22;4333;48.322;14.340;2023-08-08T07:15:05;19.40;90.70
8591;DHT22;4333;48.322;14.340;2023-08-08T07:17:33;19.80;73.90
8591;DHT22;4333;48.322;14.340;2023-08-08T07:20:02;20.60;70.20
8591;DHT22;4333;48.322;14.340;2023-08-08T07:22:28;21.90;54.70
8591;DHT22;4333;48.322;14.340;2023-08-08T07:24:53;23.10;45.20
8591;DHT22;4333;48.322;14.340;2023-08-08T07:27:19;23.90;31.20
8591;DHT22;4333;48.322;14.340;2023-08-08T07:29:45;24.10;25.90
8591;DHT22;4333;48.322;14.340;2023-08-08T07:32:13;24.20;24.50
8591;DHT22;4333;48.322;14.340;2023-08-08T07:34:38;23.30;20.20
8591;DHT22;4333;48.322;14.340;2023-08-08T07:37:05;22.60;28.40
8591;DHT22;4333;48.322;14.340;2023-08-08T07:39:30;21.80;36.00
8591;DHT22;4333;48.322;14.340;2023-08-08T07:41:59;22.10;32.20
8591;DHT22;4333;48.322;14.340;2023-08-08T07:44:24;22.00;29.60
8591;DHT22;4333;48.322;14.340;2023-08-08T07:46:54;21.90;30.70
8591;DHT22;4333;48.322;14.340;2023-08-08T07:49:22;21.70;31.30
8591;DHT22;4333;48.322;14.340;2023-08-08T07:51:48;21.30;28.70
8591;DHT22;4333;48.322;14.340;2023-08-08T07:54:16;21.70;38.30
8591;DHT22;4333;48.322;14.340;2023-08-08T07:56:41;21.70;23.80
8591;DHT22;4333;48.322;14.340;2023-08-08T07:59:08;20.00;25.70
8591;DHT22;4333;48.322;14.340;2023-08-08T08:01:36;19.00;37.50
8591;DHT22;4333;48.322;14.340;2023-08-08T08:04:02;18.20;48.50
8591;DHT22;4333;48.322;14.340;2023-08-08T08:06:28;18.30;52.50
8591;DHT22;4333;48.322;14.340;2023-08-08T08:08:59;18.50;57.60
8591;DHT22;4333;48.322;14.340;2023-08-08T08:11:24;19.60;44.70
8591;DHT22;4333;48.322;14.340;2023-08-08T08:13:52;20.00;38.10
8591;DHT22;4333;48.322;14.340;2023-08-08T08:16:18;20.60;39.60
8591;DHT22;4333;48.322;14.340;2023-08-08T08:18:43;21.00;28.40
8591;DHT22;4333;48.322;14.340;2023-08-08T08:21:09;20.70;30.40
8591;DHT22;4333;48.322;14.340;2023-08-08T08:23:35;20.70;27.40
8591;DHT22;4333;48.322;14.340;2023-08-08T08:26:03;19.60;29.20
8591;DHT22;4333;48.322;14.340;2023-08-08T08:28:29;19.40;35.00
8591;DHT22;4333;48.322;14.340;2023-08-08T08:31:04;18.90;40.40
8591;DHT22;4333;48.322;14.340;2023-08-08T08:33:32;18.40;44.60
8591;DHT22;4333;48.322;14.340;2023-08-08T08:35:58;18.60;49.40
8591;DHT22;4333;48.322;14.340;2023-08-08T08:38:26;19.00;48.90
8591;DHT22;4333;48.322;14.340;2023-08-08T08:40:56;18.70;46.90
8591;DHT22;4333;48.322;14.340;2023-08-08T08:43:22;18.60;47.00
8591;DHT22;4333;48.322;14.340;2023-08-08T08:45:52;18.50;52.40
8591;DHT22;4333;48.322;14.340;2023-08-08T08:48:25;19.40;47.60
8591;DHT22;4333;48.322;14.340;2023-08-08T08:50:51;19.70;44.70
8591;DHT22;4333;48.322;14.340;2023-08-08T08:53:20;20.40;39.60
8591;DHT22;4333;48.322;14.340;2023-08-08T08:55:48;21.40;36.20
8591;DHT22;4333;48.322;14.340;2023-08-08T08:58:15;21.20;25.60
8591;DHT22;4333;48.322;14.340;2023-08-08T09:00:46;21.40;24.90
8591;DHT22;4333;48.322;14.340;2023-08-08T09:03:13;22.10;24.90
8591;DHT22;4333;48.322;14.340;2023-08-08T09:05:42;22.50;16.10
8591;DHT22;4333;48.322;14.340;2023-08-08T09:08:12;22.80;11.90
8591;DHT22;4333;48.322;14.340;2023-08-08T09:10:41;22.80;9.80
8591;DHT22;4333;48.322;14.340;2023-08-08T09:13:06;22.80;13.20
8591;DHT22;4333;48.322;14.340;2023-08-08T09:15:35;22.70;7.40
8591;DHT22;4333;48.322;14.340;2023-08-08T09:18:03;22.60;11.30
8591;DHT22;4333;48.322;14.340;2023-08-08T09:20:29;22.10;8.00
8591;DHT22;4333;48.322;14.340;2023-08-08T09:22:55;22.10;9.10
8591;DHT22;4333;48.322;14.340;2023-08-08T09:25:21;22.00;10.50
8591;DHT22;4333;48.322;14.340;2023-08-08T09:27:47;21.40;15.60
8591;DHT22;4333;48.322;14.340;2023-08-08T09:30:15;21.70;23.40
8591;DHT22;4333;48.322;14.340;2023-08-08T09:32:45;22.20;9.10
8591;DHT22;4333;48.322;14.340;2023-08-08T09:35:11;22.50;17.40
8591;DHT22;4333;48.322;14.340;2023-08-08T09:37:39;23.20;12.40
8591;DHT22;4333;48.322;14.340;2023-08-08T09:40:06;23.50;1.00
8591;DHT22;4333;48.322;14.340;2023-08-08T09:42:35;23.70;8.10
8591;DHT22;4333;48.322;14.340;2023-08-08T09:45:01;24.10;2.40
8591;DHT22;4333;48.322;14.340;2023-08-08T09:47:27;24.20;1.00
8591;DHT22;4333;48.322;14.340;2023-08-08T09:50:02;23.40;1.00
8591;DHT22;4333;48.322;14.340;2023-08-08T09:52:30;23.60;1.00
8591;DHT22;4333;48.322;14.340;2023-08-08T09:54:56;23.30;1.00
8591;DHT22;4333;48.322;14.340;2023-08-08T09:57:25;22.50;1.00
8591;DHT22;4333;48.322;14.340;2023-08-08T09:59:53;22.20;4.70
8591;DHT22;4333;48.322;14.340;2023-08-08T10:02:21;21.30;8.60
8591;DHT22;4333;48.322;14.340;2023-08-08T10:04:49;21.30;15.70
8591;DHT22;4333;48.322;14.340;2023-08-08T10:07:17;21.10;17.30
8591;DHT22;4333;48.322;14.340;2023-08-08T10:09:43;22.10;15.60
8591;DHT22;4333;48.322;14.340;2023-08-08T10:12:11;23.00;9.20
8591;DHT22;4333;48.322;14.340;2023-08-08T10:14:37;23.20;1.00
8591;DHT22;4333;48.322;14.340;2023-08-08T10:17:04;23.10;1.00
8591;DHT22;4333;48.322;14.340;2023-08-08T10:19:33;23.60;1.00
8591;DHT22;4333;48.322;14.340;2023-08-08T10:22:02;24.30;1.00
8591;DHT22;4333;48.322;14.340;2023-08-08T10:24:38;24.60;1.00
8591;DHT22;4333;48.322;14.340;2023-08-08T10:27:04;24.50;1.00
8591;DHT22;4333;48.322;14.340;2023-08-08T10:29:32;24.50;1.00
8591;DHT22;4333;48.322;14.340;2023-08-08T10:32:04;23.60;1.00
8591;DHT22;4333;48.322;14.340;2023-08-08T10:34:44;23.40;1.00
8591;DHT22;4333;48.322;14.340;2023-08-08T10:37:17;23.80;1.00
8591;DHT22;4333;48.322;14.340;2023-08-08T10:40:02;24.30;1.00
8591;DHT22;4333;48.322;14.340;2023-08-08T10:42:42;24.60;1.00
8591;DHT22;4333;48.322;14.340;2023-08-08T10:45:12;24.50;1.00
8591;DHT22;4333;48.322;14.340;2023-08-08T10:47:44;24.60;1.00
8591;DHT22;4333;48.322;14.340;2023-08-08T10:50:14;23.70;1.00
8591;DHT22;4333;48.322;14.340;2023-08-08T10:52:53;23.10;1.00
8591;DHT22;4333;48.322;14.340;2023-08-08T11:00:26;24.30;1.00
8591;DHT22;4333;48.322;14.340;2023-08-08T11:02:53;23.50;1.00
8591;DHT22;4333;48.322;14.340;2023-08-08T11:05:22;22.90;1.00
8591;DHT22;4333;48.322;14.340;2023-08-08T11:07:48;23.20;1.00
8591;DHT22;4333;48.322;14.340;2023-08-08T11:10:14;23.50;1.00
8591;DHT22;4333;48.322;14.340;2023-08-08T11:12:53;24.30;1.00
8591;DHT22;4333;48.322;14.340;2023-08-08T11:15:19;24.90;1.00
8591;DHT22;4333;48.322;14.340;2023-08-08T11:17:48;24.70;1.00
8591;DHT22;4333;48.322;14.340;2023-08-08T11:20:14;24.70;1.00
8591;DHT22;4333;48.322;14.340;2023-08-08T11:22:40;24.50;1.00
8591;DHT22;4333;48.322;14.340;2023-08-08T11:25:06;24.90;1.00
8591;DHT22;4333;48.322;14.340;2023-08-08T11:27:33;24.80;1.00
8591;DHT22;4333;48.322;14.340;2023-08-08T11:30:03;24.80;1.00
8591;DHT22;4333;48.322;14.340;2023-08-08T11:32:29;23.20;1.00
8591;DHT22;4333;48.322;14.340;2023-08-08T11:34:55;23.10;1.00
8591;DHT22;4333;48.322;14.340;2023-08-08T11:37:23;23.00;1.00
8591;DHT22;4333;48.322;14.340;2023-08-08T11:39:51;23.40;1.00
8591;DHT22;4333;48.322;14.340;2023-08-08T11:42:19;24.00;1.00
8591;DHT22;4333;48.322;14.340;2023-08-08T11:44:48;24.10;1.00
8591;DHT22;4333;48.322;14.340;2023-08-08T11:47:17;24.00;1.00
8591;DHT22;4333;48.322;14.340;2023-08-08T11:49:42;24.10;1.00
8591;DHT22;4333;48.322;14.340;2023-08-08T11:52:11;23.90;1.00
8591;DHT22;4333;48.322;14.340;2023-08-08T11:54:40;24.00;1.00
8591;DHT22;4333;48.322;14.340;2023-08-08T11:57:11;24.40;1.00
8591;DHT22;4333;48.322;14.340;2023-08-08T11:59:41;24.60;1.00
8591;DHT22;4333;48.322;14.340;2023-08-08T12:02:10;24.60;1.00
8591;DHT22;4333;48.322;14.340;2023-08-08T12:04:39;24.50;1.00
8591;DHT22;4333;48.322;14.340;2023-08-08T12:07:04;24.60;1.00
8591;DHT22;4333;48.322;14.340;2023-08-08T12:09:36;24.20;1.00
8591;DHT22;4333;48.322;14.340;2023-08-08T12:12:06;24.00;1.00
8591;DHT22;4333;48.322;14.340;2023-08-08T12:14:42;24.10;1.00
8591;DHT22;4333;48.322;14.340;2023-08-08T12:17:09;24.00;1.00
8591;DHT22;4333;48.322;14.340;2023-08-08T12:19:34;23.90;1.00
8591;DHT22;4333;48.322;14.340;2023-08-08T12:22:03;24.00;1.00
8591;DHT22;4333;48.322;14.340;2023-08-08T12:24:34;24.10;1.00
8591;DHT22;4333;48.322;14.340;2023-08-08T12:27:02;23.90;1.00
8591;DHT22;4333;48.322;14.340;2023-08-08T12:29:32;23.70;1.00
8591;DHT22;4333;48.322;14.340;2023-08-08T12:31:58;23.70;1.00
8591;DHT22;4333;48.322;14.340;2023-08-08T12:34:23;23.80;1.00
8591;DHT22;4333;48.322;14.340;2023-08-08T12:36:51;23.60;1.00
8591;DHT22;4333;48.322;14.340;2023-08-08T12:39:17;23.80;1.00
8591;DHT22;4333;48.322;14.340;2023-08-08T12:41:42;24.20;1.00
8591;DHT22;4333;48.322;14.340;2023-08-08T12:44:10;23.60;1.00
8591;DHT22;4333;48.322;14.340;2023-08-08T12:46:38;23.80;1.00
8591;DHT22;4333;48.322;14.340;2023-08-08T12:49:04;24.10;1.00
8591;DHT22;4333;48.322;14.340;2023-08-08T12:51:30;24.20;1.00
8591;DHT22;4333;48.322;14.340;2023-08-08T12:53:55;24.30;1.00
8591;DHT22;4333;48.322;14.340;2023-08-08T12:56:21;24.50;1.00
8591;DHT22;4333;48.322;14.340;2023-08-08T12:58:47;24.50;1.00
8591;DHT22;4333;48.322;14.340;2023-08-08T13:01:15;24.80;1.00
8591;DHT22;4333;48.322;14.340;2023-08-08T13:03:44;24.90;1.00
8591;DHT22;4333;48.322;14.340;2023-08-08T13:06:14;24.90;1.00
8591;DHT22;4333;48.322;14.340;2023-08-08T13:08:40;24.70;1.00
8591;DHT22;4333;48.322;14.340;2023-08-08T13:11:06;24.70;1.00
8591;DHT22;4333;48.322;14.340;2023-08-08T13:13:33;24.60;1.00
8591;DHT22;4333;48.322;14.340;2023-08-08T13:16:02;24.70;1.00
8591;DHT22;4333;48.322;14.340;2023-08-08T13:18:28;24.60;1.00
8591;DHT22;4333;48.322;14.340;2023-08-08T13:20:54;24.40;1.00
8591;DHT22;4333;48.322;14.340;2023-08-08T13:23:20;24.60;1.00
8591;DHT22;4333;48.322;14.340;2023-08-08T13:25:48;24.80;1.00
8591;DHT22;4333;48.322;14.340;2023-08-08T13:28:17;25.10;1.00
8591;DHT22;4333;48.322;14.340;2023-08-08T13:30:43;25.30;1.00
8591;DHT22;4333;48.322;14.340;2023-08-08T13:33:09;25.50;1.00
8591;DHT22;4333;48.322;14.340;2023-08-08T13:35:35;25.40;1.00
8591;DHT22;4333;48.322;14.340;2023-08-08T13:38:01;25.40;1.00
8591;DHT22;4333;48.322;14.340;2023-08-08T13:40:27;25.40;1.00
8591;DHT22;4333;48.322;14.340;2023-08-08T13:42:55;25.40;1.00
8591;DHT22;4333;48.322;14.340;2023-08-08T13:45:23;25.60;1.00
8591;DHT22;4333;48.322;14.340;2023-08-08T13:47:51;25.60;1.00
8591;DHT22;4333;48.322;14.340;2023-08-08T13:50:17;25.70;1.00
8591;DHT22;4333;48.322;14.340;2023-08-08T13:52:47;25.70;1.00
8591;DHT22;4333;48.322;14.340;2023-08-08T13:55:13;25.60;1.00
8591;DHT22;4333;48.322;14.340;2023-08-08T13:57:39;25.40;1.00
8591;DHT22;4333;48.322;14.340;2023-08-08T14:00:05;25.20;1.00
8591;DHT22;4333;48.322;14.340;2023-08-08T14:02:34;24.20;1.00
8591;DHT22;4333;48.322;14.340;2023-08-08T14:05:00;24.10;1.00
8591;DHT22;4333;48.322;14.340;2023-08-08T14:07:26;24.50;1.00
8591;DHT22;4333;48.322;14.340;2023-08-08T14:09:56;24.70;1.00
8591;DHT22;4333;48.322;14.340;2023-08-08T14:12:22;24.90;1.00
8591;DHT22;4333;48.322;14.340;2023-08-08T14:14:48;24.80;1.00
8591;DHT22;4333;48.322;14.340;2023-08-08T14:17:16;24.80;1.00
8591;DHT22;4333;48.322;14.340;2023-08-08T14:19:42;25.00;1.00
8591;DHT22;4333;48.322;14.340;2023-08-08T14:22:10;25.00;1.00
8591;DHT22;4333;48.322;14.340;2023-08-08T14:24:38;25.00;1.00
8591;DHT22;4333;48.322;14.340;2023-08-08T14:27:03;25.20;1.00
8591;DHT22;4333;48.322;14.340;2023-08-08T14:29:32;25.40;1.00
8591;DHT22;4333;48.322;14.340;2023-08-08T14:31:58;25.30;1.00
8591;DHT22;4333;48.322;14.340;2023-08-08T14:34:32;25.40;1.00
8591;DHT22;4333;48.322;14.340;2023-08-08T14:37:02;25.30;1.00
8591;DHT22;4333;48.322;14.340;2023-08-08T14:39:31;25.20;1.00
8591;DHT22;4333;48.322;14.340;2023-08-08T14:41:57;25.10;1.00
8591;DHT22;4333;48.322;14.340;2023-08-08T14:44:23;25.10;1.00
8591;DHT22;4333;48.322;14.340;2023-08-08T14:46:49;25.20;1.00
8591;DHT22;4333;48.322;14.340;2023-08-08T14:49:14;25.30;1.00
8591;DHT22;4333;48.322;14.340;2023-08-08T14:51:40;25.60;1.00
8591;DHT22;4333;48.322;14.340;2023-08-08T14:54:06;25.60;1.00
8591;DHT22;4333;48.322;14.340;2023-08-08T14:56:35;25.60;1.00
8591;DHT22;4333;48.322;14.340;2023-08-08T14:59:01;24.90;1.00
8591;DHT22;4333;48.322;14.340;2023-08-08T15:10:45;24.60;1.00
8591;DHT22;4333;48.322;14.340;2023-08-08T15:13:13;24.60;1.00
8591;DHT22;4333;48.322;14.340;2023-08-08T15:15:39;24.00;1.00
8591;DHT22;4333;48.322;14.340;2023-08-08T15:18:05;23.80;1.00
8591;DHT22;4333;48.322;14.340;2023-08-08T15:20:30;23.90;1.00
8591;DHT22;4333;48.322;14.340;2023-08-08T15:22:56;24.10;1.00
8591;DHT22;4333;48.322;14.340;2023-08-08T15:25:22;23.90;1.00
8591;DHT22;4333;48.322;14.340;2023-08-08T15:27:52;24.00;1.00
8591;DHT22;4333;48.322;14.340;2023-08-08T15:30:18;24.10;1.00
8591;DHT22;4333;48.322;14.340;2023-08-08T15:32:46;24.40;1.00
8591;DHT22;4333;48.322;14.340;2023-08-08T15:35:11;24.50;1.00
8591;DHT22;4333;48.322;14.340;2023-08-08T15:37:37;24.00;1.00
8591;DHT22;4333;48.322;14.340;2023-08-08T15:40:06;24.00;1.00
8591;DHT22;4333;48.322;14.340;2023-08-08T15:42:31;23.90;1.00
8591;DHT22;4333;48.322;14.340;2023-08-08T15:44:57;23.60;1.00
8591;DHT22;4333;48.322;14.340;2023-08-08T15:47:25;23.50;1.00
8591;DHT22;4333;48.322;14.340;2023-08-08T15:49:50;23.20;1.00
8591;DHT22;4333;48.322;14.340;2023-08-08T15:52:23;23.10;1.00
8591;DHT22;4333;48.322;14.340;2023-08-08T15:54:49;23.10;1.00
8591;DHT22;4333;48.322;14.340;2023-08-08T15:57:14;23.20;1.00
8591;DHT22;4333;48.322;14.340;2023-08-08T15:59:45;23.40;1.00
8591;DHT22;4333;48.322;14.340;2023-08-08T16:02:11;23.50;1.00
8591;DHT22;4333;48.322;14.340;2023-08-08T16:04:37;23.60;1.00
8591;DHT22;4333;48.322;14.340;2023-08-08T16:07:05;23.70;1.00
8591;DHT22;4333;48.322;14.340;2023-08-08T16:09:31;23.60;1.00